createdAt,value
2023-04-02T00:09:33.682Z,3.38
2023-04-02T00:19:44.279Z,3.33
2023-04-02T00:29:51.738Z,3.28
2023-04-02T00:40:02.116Z,3.29
2023-04-02T00:50:20.579Z,3.27
2023-04-02T01:00:32.302Z,3.24
2023-04-02T01:10:51.127Z,3.19
2023-04-02T01:21:28.382Z,3.13
2023-04-02T01:31:35.325Z,3.05
2023-04-02T01:41:44.243Z,3.01
2023-04-02T01:51:55.223Z,3.00
2023-04-02T02:02:04.373Z,2.99
2023-04-02T02:12:14.294Z,2.94
2023-04-02T02:22:28.262Z,2.88
2023-04-02T02:32:37.726Z,2.80
2023-04-02T02:42:50.307Z,2.74
2023-04-02T02:52:59.228Z,2.73
2023-04-02T03:03:08.072Z,2.77
2023-04-02T03:13:23.110Z,2.78
2023-04-02T03:23:34.108Z,2.81
2023-04-02T03:33:43.525Z,2.77
2023-04-02T03:43:53.845Z,2.66
2023-04-02T03:53:59.708Z,2.56
2023-04-02T04:04:11.595Z,2.54
2023-04-02T04:14:21.183Z,2.51
2023-04-02T04:24:28.633Z,2.51
2023-04-02T04:34:46.649Z,2.47
2023-04-02T04:44:58.351Z,2.38
2023-04-02T04:55:05.628Z,2.33
2023-04-02T05:05:21.509Z,2.28
2023-04-02T05:15:31.520Z,2.23
2023-04-02T05:25:39.200Z,2.12
2023-04-02T05:35:49.634Z,2.06
2023-04-02T05:45:59.407Z,1.93
2023-04-02T05:56:12.471Z,1.78
2023-04-02T06:06:27.473Z,1.69
2023-04-02T06:16:34.443Z,1.62
2023-04-02T06:26:44.589Z,1.64
2023-04-02T06:36:52.563Z,1.64
2023-04-02T06:47:04.098Z,1.73
2023-04-02T06:57:10.537Z,1.90
2023-04-02T07:07:16.658Z,2.07
2023-04-02T07:17:23.059Z,2.15
2023-04-02T07:27:29.074Z,2.08
2023-04-02T07:37:35.098Z,1.98
2023-04-02T07:47:41.138Z,1.94
2023-04-02T07:57:52.688Z,1.97
2023-04-02T08:07:58.749Z,1.95
2023-04-02T08:18:04.593Z,1.93
2023-04-02T08:28:11.107Z,1.93
2023-04-02T08:38:22.723Z,2.01
2023-04-02T08:48:29.216Z,2.04
2023-04-02T08:58:42.926Z,2.24
2023-04-02T09:08:51.919Z,2.24
2023-04-02T09:18:57.692Z,2.26
2023-04-02T09:29:17.210Z,2.34
2023-04-02T09:39:25.840Z,2.36
2023-04-02T09:49:33.899Z,2.41
2023-04-02T09:59:39.637Z,2.72
2023-04-02T10:09:45.851Z,3.18
2023-04-02T10:19:55.563Z,3.02
2023-04-02T10:30:10.617Z,2.87
2023-04-02T10:40:22.634Z,2.83
2023-04-02T10:50:39.393Z,2.92
2023-04-02T11:00:47.959Z,2.81
2023-04-02T11:10:59.129Z,2.79
2023-04-02T11:21:07.637Z,2.72
2023-04-02T11:31:22.987Z,2.82
2023-04-02T11:42:05.825Z,2.91
2023-04-02T11:52:27.997Z,2.89
2023-04-02T12:02:40.513Z,2.94
2023-04-02T12:12:47.106Z,2.84
2023-04-02T12:22:55.709Z,3.17
2023-04-02T12:33:17.564Z,3.26
2023-04-02T12:43:31.748Z,3.21
2023-04-02T12:53:40.431Z,2.90
2023-04-02T13:03:59.789Z,2.62
2023-04-02T13:14:08.895Z,2.60
2023-04-02T13:24:21.135Z,2.59
2023-04-02T13:34:27.121Z,2.49
2023-04-02T13:44:35.100Z,2.46
2023-04-02T13:54:46.381Z,2.40
2023-04-02T14:04:57.766Z,2.34
2023-04-02T14:15:20.579Z,2.32
2023-04-02T14:25:32.158Z,2.24
2023-04-02T14:35:42.328Z,2.23
2023-04-02T14:45:57.404Z,2.10
2023-04-02T14:56:06.759Z,1.93
2023-04-02T15:06:16.502Z,1.77
2023-04-02T15:16:26.510Z,1.51
2023-04-02T15:26:42.657Z,1.41
2023-04-02T15:37:06.547Z,1.36
2023-04-02T15:47:22.874Z,1.18
2023-04-02T15:57:45.909Z,0.92
2023-04-02T16:08:18.339Z,0.61
2023-04-02T16:18:34.046Z,0.42
2023-04-02T16:28:46.673Z,0.33
2023-04-02T16:39:00.466Z,0.24
2023-04-02T16:49:17.550Z,0.14
2023-04-02T16:59:33.611Z,0.04
2023-04-02T17:09:50.393Z,0.02
2023-04-02T17:20:01.374Z,-0.03
2023-04-02T17:30:17.203Z,-0.04
2023-04-02T17:40:29.511Z,0.02
2023-04-02T17:50:52.050Z,0.05
2023-04-02T18:01:08.206Z,0.11
2023-04-02T18:11:23.406Z,0.20
2023-04-02T18:21:36.663Z,0.31
2023-04-02T18:31:49.644Z,0.43
2023-04-02T18:42:04.672Z,0.56
2023-04-02T18:52:15.516Z,0.64
2023-04-02T19:02:41.499Z,0.72
2023-04-02T19:12:47.459Z,0.78
2023-04-02T19:23:03.298Z,0.80
2023-04-02T19:33:20.890Z,0.80
2023-04-02T19:43:27.255Z,0.83
2023-04-02T19:53:33.459Z,0.87
2023-04-02T20:03:39.678Z,0.92
2023-04-02T20:13:45.474Z,0.95
2023-04-02T20:23:55.462Z,0.99
2023-04-02T20:34:02.734Z,1.01
2023-04-02T20:44:08.652Z,1.02
2023-04-02T20:54:14.433Z,1.07
2023-04-02T21:04:21.996Z,1.10
2023-04-02T21:14:27.800Z,1.14
2023-04-02T21:24:33.670Z,1.15
2023-04-02T21:34:39.653Z,1.16
2023-04-02T21:44:45.943Z,1.14
2023-04-02T21:54:52.165Z,1.07
2023-04-02T22:04:58.530Z,0.97
2023-04-02T22:15:04.805Z,0.89
2023-04-02T22:25:12.071Z,0.79
2023-04-02T22:35:21.561Z,0.63
2023-04-02T22:45:27.439Z,0.41
2023-04-02T22:55:33.545Z,0.10
2023-04-02T23:05:39.902Z,-0.22
2023-04-02T23:15:47.765Z,-0.48
2023-04-02T23:26:02.991Z,-0.68
2023-04-02T23:36:15.644Z,-0.80
2023-04-02T23:46:22.684Z,-0.89
2023-04-02T23:56:29.359Z,-0.92
